»·PEaware :: N5322P KSBA-KBUR

N5322P :: KSBA-KBUR

FLIGHT INFORMATION

Flight Status: Arrived
Operator: Privately registered:
United States
More flights under this callsign
Pilot: Will W. (20406)
Aircraft: CESSNA 172 SKYHAWK
(C172)
More flights by this aircraft type
Origin: KSBA Santa Barbara Mun
United States
Destination: KBUR Bob Hope-Burbank
United States
More flights between these airports :: More routes between these airports
Route: +
File this flight plan on PilotEdge
Remarks:
Altitude:
(Current/Filed)
5,500ft
Speed:
(Current/Filed)
0kts
Departed: 14-Sep-18 05:18 PM
Arrived: 14-Sep-18 05:58 PM
Distance/Time
Traveled:
75nm/0:40
Distance/Time
To Go:
Arrived

Flight Plot

Page will automatically refresh every two minutes.


Map Options




Map Legend


Flown Route
Filed Route
Departure Airport
Arrival Airport
Navaid (VOR, NDB)
Fix

Horizontal Profiles

Position Reports

Time Latitude Longitude Heading Altitude Ground
Speed
14-Sep-18 17:11 34.432569 -119.835085 71 14ft 0kts
14-Sep-18 17:12 34.432569 -119.835085 71 14ft 0kts
14-Sep-18 17:13 34.432571 -119.835077 71 14ft 0kts
14-Sep-18 17:14 34.431828 -119.835985 250 14ft 9kts
14-Sep-18 17:15 34.430951 -119.839021 250 14ft 10kts
14-Sep-18 17:16 34.430701 -119.839782 246 14ft 0kts
14-Sep-18 17:17 34.430701 -119.839782 246 14ft 0kts
14-Sep-18 17:18 34.430701 -119.839782 246 14ft 0kts
14-Sep-18 17:19 34.430664 -119.839893 247 14ft 0kts
14-Sep-18 17:20 34.420301 -119.836526 165 222ft 92kts
14-Sep-18 17:21 34.395219 -119.827873 168 1272ft 85kts
14-Sep-18 17:22 34.366051 -119.818665 168 1372ft 120kts
14-Sep-18 17:23 34.335826 -119.804916 160 1765ft 95kts
14-Sep-18 17:24 34.319897 -119.790282 97 2810ft 75kts
14-Sep-18 17:25 34.317703 -119.759970 96 3539ft 105kts
14-Sep-18 17:26 34.314970 -119.722633 96 4246ft 114kts
14-Sep-18 17:27 34.312624 -119.686273 96 4907ft 115kts
14-Sep-18 17:28 34.310412 -119.646441 97 5371ft 125kts
14-Sep-18 17:29 34.307912 -119.602753 96 5384ft 133kts
14-Sep-18 17:30 34.305318 -119.557738 96 5384ft 134kts
14-Sep-18 17:31 34.302735 -119.512450 96 5384ft 135kts
14-Sep-18 17:32 34.300180 -119.467056 96 5384ft 132kts
14-Sep-18 17:33 34.297983 -119.424515 96 5531ft 126kts
14-Sep-18 17:34 34.295803 -119.381174 96 5531ft 130kts
14-Sep-18 17:35 34.293846 -119.342425 96 5529ft 131kts
14-Sep-18 17:36 34.291699 -119.298932 96 5528ft 130kts
14-Sep-18 17:37 34.288870 -119.255063 100 5528ft 130kts
14-Sep-18 17:38 34.284741 -119.211821 100 5528ft 129kts
14-Sep-18 17:39 34.280401 -119.168418 101 5529ft 130kts
14-Sep-18 17:40 34.276010 -119.125540 101 5529ft 129kts
14-Sep-18 17:41 34.271764 -119.082981 101 5529ft 128kts
14-Sep-18 17:42 34.267583 -119.040330 101 5529ft 127kts
14-Sep-18 17:43 34.263459 -118.997864 100 5529ft 127kts
14-Sep-18 17:44 34.259284 -118.955553 101 5529ft 126kts
14-Sep-18 17:45 34.255056 -118.913363 100 5529ft 126kts
14-Sep-18 17:46 34.250812 -118.871623 100 5529ft 126kts
14-Sep-18 17:47 34.246502 -118.829663 100 5532ft 126kts
14-Sep-18 17:48 34.242124 -118.787631 100 5538ft 126kts
14-Sep-18 17:49 34.238097 -118.745745 100 5522ft 126kts
14-Sep-18 17:50 34.233989 -118.703792 101 5396ft 130kts
14-Sep-18 17:51 34.229729 -118.660584 101 4892ft 128kts
14-Sep-18 17:52 34.225724 -118.618425 101 4389ft 125kts
14-Sep-18 17:53 34.221798 -118.577034 100 3886ft 123kts
14-Sep-18 17:54 34.226083 -118.538615 100 3644ft 113kts
14-Sep-18 17:55 34.220966 -118.500521 104 3308ft 116kts
14-Sep-18 17:56 34.214379 -118.463031 107 3019ft 119kts
14-Sep-18 17:57 34.202889 -118.426657 97 2692ft 116kts
14-Sep-18 17:58 34.217156 -118.392464 67 2112ft 106kts
14-Sep-18 17:59 34.220758 -118.365113 141 1351ft 50kts
14-Sep-18 18:00 34.209420 -118.359633 166 758ft 33kts
14-Sep-18 18:01 34.206126 -118.359752 247 742ft 1kts

Navigation Log

Ident Type
1. KSBA Airport
2. KBUR Airport